sensor_id;sensor_type;location;lat;lon;timestamp;temperature;humidity
8676;DHT22;4375;52.486;13.424;2023-09-12T00:01:56;20.80;99.90
8676;DHT22;4375;52.486;13.424;2023-09-12T00:04:24;20.80;99.90
8676;DHT22;4375;52.486;13.424;2023-09-12T00:06:50;20.80;99.90
8676;DHT22;4375;52.486;13.424;2023-09-12T00:09:19;20.80;99.90
8676;DHT22;4375;52.486;13.424;2023-09-12T00:11:45;20.80;99.90
8676;DHT22;4375;52.486;13.424;2023-09-12T00:14:15;20.70;99.90
8676;DHT22;4375;52.486;13.424;2023-09-12T00:16:41;20.70;99.90
8676;DHT22;4375;52.486;13.424;2023-09-12T00:19:07;20.70;99.90
8676;DHT22;4375;52.486;13.424;2023-09-12T00:21:33;20.70;99.90
8676;DHT22;4375;52.486;13.424;2023-09-12T00:23:58;20.70;99.90
8676;DHT22;4375;52.486;13.424;2023-09-12T00:26:27;20.70;99.90
8676;DHT22;4375;52.486;13.424;2023-09-12T00:28:53;20.60;99.90
8676;DHT22;4375;52.486;13.424;2023-09-12T00:31:18;20.60;99.90
8676;DHT22;4375;52.486;13.424;2023-09-12T00:33:44;20.60;99.90
8676;DHT22;4375;52.486;13.424;2023-09-12T00:36:09;20.60;99.90
8676;DHT22;4375;52.486;13.424;2023-09-12T00:38:35;20.60;99.90
8676;DHT22;4375;52.486;13.424;2023-09-12T00:41:01;20.60;99.90
8676;DHT22;4375;52.486;13.424;2023-09-12T00:43:26;20.60;99.90
8676;DHT22;4375;52.486;13.424;2023-09-12T00:45:52;20.60;99.90
8676;DHT22;4375;52.486;13.424;2023-09-12T00:48:26;20.70;99.90
8676;DHT22;4375;52.486;13.424;2023-09-12T00:50:52;20.70;99.90
8676;DHT22;4375;52.486;13.424;2023-09-12T00:53:26;20.60;99.90
8676;DHT22;4375;52.486;13.424;2023-09-12T00:55:56;20.60;99.90
8676;DHT22;4375;52.486;13.424;2023-09-12T00:58:24;20.50;99.90
8676;DHT22;4375;52.486;13.424;2023-09-12T01:00:50;20.50;99.90
8676;DHT22;4375;52.486;13.424;2023-09-12T01:03:15;20.50;99.90
8676;DHT22;4375;52.486;13.424;2023-09-12T01:05:44;20.40;99.90
8676;DHT22;4375;52.486;13.424;2023-09-12T01:08:11;20.40;99.90
8676;DHT22;4375;52.486;13.424;2023-09-12T01:10:37;20.50;99.90
8676;DHT22;4375;52.486;13.424;2023-09-12T01:13:03;20.40;99.90
8676;DHT22;4375;52.486;13.424;2023-09-12T01:15:29;20.40;99.90
8676;DHT22;4375;52.486;13.424;2023-09-12T01:17:59;20.40;99.90
8676;DHT22;4375;52.486;13.424;2023-09-12T01:20:31;20.40;99.90
8676;DHT22;4375;52.486;13.424;2023-09-12T01:26:27;20.40;99.90
8676;DHT22;4375;52.486;13.424;2023-09-12T01:28:55;20.30;99.90
8676;DHT22;4375;52.486;13.424;2023-09-12T01:31:23;20.30;99.90
8676;DHT22;4375;52.486;13.424;2023-09-12T01:33:54;20.30;99.90
8676;DHT22;4375;52.486;13.424;2023-09-12T01:36:19;20.30;99.90
8676;DHT22;4375;52.486;13.424;2023-09-12T01:38:45;20.30;99.90
8676;DHT22;4375;52.486;13.424;2023-09-12T01:41:11;20.20;99.90
8676;DHT22;4375;52.486;13.424;2023-09-12T01:43:37;20.20;99.90
8676;DHT22;4375;52.486;13.424;2023-09-12T01:46:04;20.20;99.90
8676;DHT22;4375;52.486;13.424;2023-09-12T01:48:35;20.20;99.90
8676;DHT22;4375;52.486;13.424;2023-09-12T01:51:02;20.20;99.90
8676;DHT22;4375;52.486;13.424;2023-09-12T01:53:29;20.20;99.90
8676;DHT22;4375;52.486;13.424;2023-09-12T01:55:58;20.20;99.90
8676;DHT22;4375;52.486;13.424;2023-09-12T01:58:29;20.20;99.90
8676;DHT22;4375;52.486;13.424;2023-09-12T02:00:56;20.20;99.90
8676;DHT22;4375;52.486;13.424;2023-09-12T02:03:21;20.20;99.90
8676;DHT22;4375;52.486;13.424;2023-09-12T02:05:47;20.20;99.90
8676;DHT22;4375;52.486;13.424;2023-09-12T02:08:13;20.10;99.90
8676;DHT22;4375;52.486;13.424;2023-09-12T02:10:39;20.10;99.90
8676;DHT22;4375;52.486;13.424;2023-09-12T02:13:05;20.10;99.90
8676;DHT22;4375;52.486;13.424;2023-09-12T02:15:30;20.00;99.90
8676;DHT22;4375;52.486;13.424;2023-09-12T02:17:56;20.00;99.90
8676;DHT22;4375;52.486;13.424;2023-09-12T02:20:21;20.00;99.90
8676;DHT22;4375;52.486;13.424;2023-09-12T02:22:47;20.00;99.90
8676;DHT22;4375;52.486;13.424;2023-09-12T02:25:13;20.00;99.90
8676;DHT22;4375;52.486;13.424;2023-09-12T02:27:39;19.90;99.90
8676;DHT22;4375;52.486;13.424;2023-09-12T02:30:05;19.90;99.90
8676;DHT22;4375;52.486;13.424;2023-09-12T02:32:31;19.90;99.90
8676;DHT22;4375;52.486;13.424;2023-09-12T02:34:56;19.90;99.90
8676;DHT22;4375;52.486;13.424;2023-09-12T02:37:22;19.90;99.90
8676;DHT22;4375;52.486;13.424;2023-09-12T02:39:48;19.90;99.90
8676;DHT22;4375;52.486;13.424;2023-09-12T02:42:14;19.90;99.90
8676;DHT22;4375;52.486;13.424;2023-09-12T02:44:39;19.90;99.90
8676;DHT22;4375;52.486;13.424;2023-09-12T02:47:05;19.80;99.90
8676;DHT22;4375;52.486;13.424;2023-09-12T02:49:31;19.80;99.90
8676;DHT22;4375;52.486;13.424;2023-09-12T02:51:56;19.70;99.90
8676;DHT22;4375;52.486;13.424;2023-09-12T02:54:22;19.70;99.90
8676;DHT22;4375;52.486;13.424;2023-09-12T02:56:48;19.70;99.90
8676;DHT22;4375;52.486;13.424;2023-09-12T02:59:14;19.70;99.90
8676;DHT22;4375;52.486;13.424;2023-09-12T03:01:39;19.70;99.90
8676;DHT22;4375;52.486;13.424;2023-09-12T03:04:05;19.70;99.90
8676;DHT22;4375;52.486;13.424;2023-09-12T03:06:31;19.70;99.90
8676;DHT22;4375;52.486;13.424;2023-09-12T03:08:56;19.70;99.90
8676;DHT22;4375;52.486;13.424;2023-09-12T03:11:22;19.70;99.90
8676;DHT22;4375;52.486;13.424;2023-09-12T03:13:48;19.70;99.90
8676;DHT22;4375;52.486;13.424;2023-09-12T03:16:14;19.70;99.90
8676;DHT22;4375;52.486;13.424;2023-09-12T03:18:40;19.70;99.90
8676;DHT22;4375;52.486;13.424;2023-09-12T03:21:06;19.70;99.90
8676;DHT22;4375;52.486;13.424;2023-09-12T03:23:32;19.70;99.90
8676;DHT22;4375;52.486;13.424;2023-09-12T03:26:05;19.60;99.90
8676;DHT22;4375;52.486;13.424;2023-09-12T03:28:33;19.60;99.90
8676;DHT22;4375;52.486;13.424;2023-09-12T03:31:13;19.50;99.90
8676;DHT22;4375;52.486;13.424;2023-09-12T03:33:40;19.50;99.90
8676;DHT22;4375;52.486;13.424;2023-09-12T03:36:09;19.60;99.90
8676;DHT22;4375;52.486;13.424;2023-09-12T03:38:35;19.50;99.90
8676;DHT22;4375;52.486;13.424;2023-09-12T03:41:01;19.50;99.90
8676;DHT22;4375;52.486;13.424;2023-09-12T03:43:27;19.60;99.90
8676;DHT22;4375;52.486;13.424;2023-09-12T03:45:55;19.60;99.90
8676;DHT22;4375;52.486;13.424;2023-09-12T03:48:21;19.60;99.90
8676;DHT22;4375;52.486;13.424;2023-09-12T03:50:53;19.50;99.90
8676;DHT22;4375;52.486;13.424;2023-09-12T03:53:21;19.50;99.90
8676;DHT22;4375;52.486;13.424;2023-09-12T03:55:47;19.50;99.90
8676;DHT22;4375;52.486;13.424;2023-09-12T03:58:12;19.50;99.90
8676;DHT22;4375;52.486;13.424;2023-09-12T04:00:38;19.50;99.90
8676;DHT22;4375;52.486;13.424;2023-09-12T04:03:06;19.50;99.90
8676;DHT22;4375;52.486;13.424;2023-09-12T04:05:35;19.50;99.90
8676;DHT22;4375;52.486;13.424;2023-09-12T04:08:01;19.50;99.90
8676;DHT22;4375;52.486;13.424;2023-09-12T04:10:27;19.50;99.90
8676;DHT22;4375;52.486;13.424;2023-09-12T04:12:52;19.40;99.90
8676;DHT22;4375;52.486;13.424;2023-09-12T04:15:18;19.40;99.90
8676;DHT22;4375;52.486;13.424;2023-09-12T04:17:44;19.40;99.90
8676;DHT22;4375;52.486;13.424;2023-09-12T04:20:12;19.40;99.90
8676;DHT22;4375;52.486;13.424;2023-09-12T04:22:44;19.40;99.90
8676;DHT22;4375;52.486;13.424;2023-09-12T04:25:10;19.40;99.90
8676;DHT22;4375;52.486;13.424;2023-09-12T04:27:35;19.40;99.90
8676;DHT22;4375;52.486;13.424;2023-09-12T04:30:07;19.30;99.90
8676;DHT22;4375;52.486;13.424;2023-09-12T04:32:34;19.30;99.90
8676;DHT22;4375;52.486;13.424;2023-09-12T04:35:05;19.30;99.90
8676;DHT22;4375;52.486;13.424;2023-09-12T04:37:31;19.30;99.90
8676;DHT22;4375;52.486;13.424;2023-09-12T04:39:59;19.30;99.90
8676;DHT22;4375;52.486;13.424;2023-09-12T04:42:24;19.30;99.90
8676;DHT22;4375;52.486;13.424;2023-09-12T04:44:50;19.30;99.90
8676;DHT22;4375;52.486;13.424;2023-09-12T04:47:16;19.40;99.90
8676;DHT22;4375;52.486;13.424;2023-09-12T04:49:43;19.40;99.90
8676;DHT22;4375;52.486;13.424;2023-09-12T04:52:11;19.40;99.90
8676;DHT22;4375;52.486;13.424;2023-09-12T04:54:44;19.50;99.90
8676;DHT22;4375;52.486;13.424;2023-09-12T04:57:12;19.40;99.90
8676;DHT22;4375;52.486;13.424;2023-09-12T04:59:48;19.40;99.90
8676;DHT22;4375;52.486;13.424;2023-09-12T05:02:14;19.50;99.90
8676;DHT22;4375;52.486;13.424;2023-09-12T05:04:40;19.50;99.90
8676;DHT22;4375;52.486;13.424;2023-09-12T05:07:06;19.60;99.90
8676;DHT22;4375;52.486;13.424;2023-09-12T05:09:32;19.60;99.90
8676;DHT22;4375;52.486;13.424;2023-09-12T05:11:57;19.70;99.90
8676;DHT22;4375;52.486;13.424;2023-09-12T05:14:23;19.70;99.90
8676;DHT22;4375;52.486;13.424;2023-09-12T05:16:49;19.70;99.90
8676;DHT22;4375;52.486;13.424;2023-09-12T05:19:14;19.70;99.90
8676;DHT22;4375;52.486;13.424;2023-09-12T05:21:40;19.80;99.90
8676;DHT22;4375;52.486;13.424;2023-09-12T05:24:05;19.90;99.90
8676;DHT22;4375;52.486;13.424;2023-09-12T05:26:31;20.00;99.90
8676;DHT22;4375;52.486;13.424;2023-09-12T05:28:57;20.10;99.90
8676;DHT22;4375;52.486;13.424;2023-09-12T05:31:22;20.10;99.90
8676;DHT22;4375;52.486;13.424;2023-09-12T05:33:48;20.10;99.90
8676;DHT22;4375;52.486;13.424;2023-09-12T05:36:14;20.10;99.90
8676;DHT22;4375;52.486;13.424;2023-09-12T05:38:40;20.20;99.90
8676;DHT22;4375;52.486;13.424;2023-09-12T05:41:05;20.20;99.90
8676;DHT22;4375;52.486;13.424;2023-09-12T05:43:31;20.30;99.90
8676;DHT22;4375;52.486;13.424;2023-09-12T05:45:57;20.30;99.90
8676;DHT22;4375;52.486;13.424;2023-09-12T05:48:23;20.30;99.90
8676;DHT22;4375;52.486;13.424;2023-09-12T05:50:49;20.40;99.90
8676;DHT22;4375;52.486;13.424;2023-09-12T05:53:14;20.40;99.90
8676;DHT22;4375;52.486;13.424;2023-09-12T05:55:40;20.50;99.90
8676;DHT22;4375;52.486;13.424;2023-09-12T05:58:06;20.50;99.90
8676;DHT22;4375;52.486;13.424;2023-09-12T06:00:32;20.50;99.90
8676;DHT22;4375;52.486;13.424;2023-09-12T06:02:58;20.50;99.90
8676;DHT22;4375;52.486;13.424;2023-09-12T06:05:24;20.60;99.90
8676;DHT22;4375;52.486;13.424;2023-09-12T06:07:49;20.70;99.90
8676;DHT22;4375;52.486;13.424;2023-09-12T06:10:15;20.80;99.90
8676;DHT22;4375;52.486;13.424;2023-09-12T06:12:41;20.80;99.90
8676;DHT22;4375;52.486;13.424;2023-09-12T06:15:07;20.80;99.90
8676;DHT22;4375;52.486;13.424;2023-09-12T06:17:32;20.80;99.90
8676;DHT22;4375;52.486;13.424;2023-09-12T06:19:58;20.90;99.90
8676;DHT22;4375;52.486;13.424;2023-09-12T06:22:24;20.90;99.90
8676;DHT22;4375;52.486;13.424;2023-09-12T06:24:50;21.00;99.90
8676;DHT22;4375;52.486;13.424;2023-09-12T06:27:16;21.00;99.90
8676;DHT22;4375;52.486;13.424;2023-09-12T06:29:45;21.00;99.90
8676;DHT22;4375;52.486;13.424;2023-09-12T06:32:14;21.10;99.90
8676;DHT22;4375;52.486;13.424;2023-09-12T06:34:39;21.10;99.90
8676;DHT22;4375;52.486;13.424;2023-09-12T06:37:05;21.20;99.90
8676;DHT22;4375;52.486;13.424;2023-09-12T06:39:30;21.30;99.90
8676;DHT22;4375;52.486;13.424;2023-09-12T06:41:56;21.30;99.90
8676;DHT22;4375;52.486;13.424;2023-09-12T06:44:22;21.30;99.90
8676;DHT22;4375;52.486;13.424;2023-09-12T06:46:47;21.40;99.90
8676;DHT22;4375;52.486;13.424;2023-09-12T06:49:13;21.50;99.90
8676;DHT22;4375;52.486;13.424;2023-09-12T06:51:39;21.50;99.90
8676;DHT22;4375;52.486;13.424;2023-09-12T06:54:04;21.60;99.90
8676;DHT22;4375;52.486;13.424;2023-09-12T06:56:30;21.70;99.90
8676;DHT22;4375;52.486;13.424;2023-09-12T06:58:56;21.70;99.90
8676;DHT22;4375;52.486;13.424;2023-09-12T07:01:23;21.90;99.90
8676;DHT22;4375;52.486;13.424;2023-09-12T07:03:48;22.00;99.90
8676;DHT22;4375;52.486;13.424;2023-09-12T07:06:19;22.00;99.90
8676;DHT22;4375;52.486;13.424;2023-09-12T07:08:44;22.10;99.90
8676;DHT22;4375;52.486;13.424;2023-09-12T07:11:10;22.10;99.90
8676;DHT22;4375;52.486;13.424;2023-09-12T07:13:36;22.10;99.90
8676;DHT22;4375;52.486;13.424;2023-09-12T07:16:01;22.20;99.90
8676;DHT22;4375;52.486;13.424;2023-09-12T07:18:31;22.30;99.90
8676;DHT22;4375;52.486;13.424;2023-09-12T07:21:01;22.30;99.90
8676;DHT22;4375;52.486;13.424;2023-09-12T07:23:28;22.40;99.90
8676;DHT22;4375;52.486;13.424;2023-09-12T07:25:55;22.60;99.90
8676;DHT22;4375;52.486;13.424;2023-09-12T07:28:23;22.70;99.90
8676;DHT22;4375;52.486;13.424;2023-09-12T07:30:49;22.80;99.90
8676;DHT22;4375;52.486;13.424;2023-09-12T07:33:15;22.80;99.90
8676;DHT22;4375;52.486;13.424;2023-09-12T07:35:41;22.90;99.90
8676;DHT22;4375;52.486;13.424;2023-09-12T07:38:06;23.10;99.90
8676;DHT22;4375;52.486;13.424;2023-09-12T07:40:32;23.20;99.90
8676;DHT22;4375;52.486;13.424;2023-09-12T07:42:57;23.30;99.90
8676;DHT22;4375;52.486;13.424;2023-09-12T07:45:23;23.40;99.90
8676;DHT22;4375;52.486;13.424;2023-09-12T07:47:49;23.50;99.90
8676;DHT22;4375;52.486;13.424;2023-09-12T07:50:14;23.60;99.90
8676;DHT22;4375;52.486;13.424;2023-09-12T07:52:40;23.70;99.90
8676;DHT22;4375;52.486;13.424;2023-09-12T07:55:07;23.80;99.90
8676;DHT22;4375;52.486;13.424;2023-09-12T07:57:33;23.90;99.90
8676;DHT22;4375;52.486;13.424;2023-09-12T07:59:59;24.00;99.90
8676;DHT22;4375;52.486;13.424;2023-09-12T08:02:25;24.20;99.90
8676;DHT22;4375;52.486;13.424;2023-09-12T08:04:51;24.80;99.90
8676;DHT22;4375;52.486;13.424;2023-09-12T08:07:17;26.40;99.90
8676;DHT22;4375;52.486;13.424;2023-09-12T08:09:56;28.40;99.90
8676;DHT22;4375;52.486;13.424;2023-09-12T08:12:24;30.50;99.90
8676;DHT22;4375;52.486;13.424;2023-09-12T08:14:51;32.30;99.90
8676;DHT22;4375;52.486;13.424;2023-09-12T08:17:17;33.40;99.90
8676;DHT22;4375;52.486;13.424;2023-09-12T08:19:43;34.30;99.90
8676;DHT22;4375;52.486;13.424;2023-09-12T08:22:10;34.50;99.90
8676;DHT22;4375;52.486;13.424;2023-09-12T08:24:36;34.30;99.90
8676;DHT22;4375;52.486;13.424;2023-09-12T08:27:03;34.60;99.70
8676;DHT22;4375;52.486;13.424;2023-09-12T08:29:29;34.80;99.50
8676;DHT22;4375;52.486;13.424;2023-09-12T08:31:55;35.20;98.00
8676;DHT22;4375;52.486;13.424;2023-09-12T08:34:21;35.70;97.00
8676;DHT22;4375;52.486;13.424;2023-09-12T08:36:47;36.00;95.40
8676;DHT22;4375;52.486;13.424;2023-09-12T08:39:15;35.80;94.20
8676;DHT22;4375;52.486;13.424;2023-09-12T08:41:42;36.00;94.10
8676;DHT22;4375;52.486;13.424;2023-09-12T08:44:09;35.70;93.70
8676;DHT22;4375;52.486;13.424;2023-09-12T08:46:34;36.00;93.60
8676;DHT22;4375;52.486;13.424;2023-09-12T08:49:00;36.00;92.20
8676;DHT22;4375;52.486;13.424;2023-09-12T08:51:26;35.70;91.90
8676;DHT22;4375;52.486;13.424;2023-09-12T08:53:52;35.90;91.60
8676;DHT22;4375;52.486;13.424;2023-09-12T08:56:18;36.40;90.80
8676;DHT22;4375;52.486;13.424;2023-09-12T08:58:45;36.60;90.40
8676;DHT22;4375;52.486;13.424;2023-09-12T09:01:13;36.60;90.40
8676;DHT22;4375;52.486;13.424;2023-09-12T09:03:41;36.90;89.40
8676;DHT22;4375;52.486;13.424;2023-09-12T09:06:09;36.90;90.20
8676;DHT22;4375;52.486;13.424;2023-09-12T09:08:36;36.50;87.00
8676;DHT22;4375;52.486;13.424;2023-09-12T09:11:02;35.70;87.90
8676;DHT22;4375;52.486;13.424;2023-09-12T09:13:29;34.60;88.80
8676;DHT22;4375;52.486;13.424;2023-09-12T09:19:02;32.80;92.00
8676;DHT22;4375;52.486;13.424;2023-09-12T09:21:31;32.30;93.00
8676;DHT22;4375;52.486;13.424;2023-09-12T09:24:03;31.80;94.10
8676;DHT22;4375;52.486;13.424;2023-09-12T09:26:46;31.40;95.10
8676;DHT22;4375;52.486;13.424;2023-09-12T09:29:16;31.10;95.80
8676;DHT22;4375;52.486;13.424;2023-09-12T09:31:43;30.70;97.00
8676;DHT22;4375;52.486;13.424;2023-09-12T09:34:16;30.10;98.20
8676;DHT22;4375;52.486;13.424;2023-09-12T09:36:48;29.90;99.20
8676;DHT22;4375;52.486;13.424;2023-09-12T09:39:15;29.60;99.90
8676;DHT22;4375;52.486;13.424;2023-09-12T09:41:42;29.60;99.90
8676;DHT22;4375;52.486;13.424;2023-09-12T09:44:08;29.50;99.90
8676;DHT22;4375;52.486;13.424;2023-09-12T09:46:36;29.40;99.90
8676;DHT22;4375;52.486;13.424;2023-09-12T09:49:02;29.30;99.90
8676;DHT22;4375;52.486;13.424;2023-09-12T09:51:30;29.20;99.90
8676;DHT22;4375;52.486;13.424;2023-09-12T09:53:56;29.20;99.90
8676;DHT22;4375;52.486;13.424;2023-09-12T09:56:24;29.40;99.90
8676;DHT22;4375;52.486;13.424;2023-09-12T09:58:55;29.20;99.90
8676;DHT22;4375;52.486;13.424;2023-09-12T10:01:28;29.00;99.90
8676;DHT22;4375;52.486;13.424;2023-09-12T10:03:58;28.80;99.90
8676;DHT22;4375;52.486;13.424;2023-09-12T10:06:24;28.80;99.90
8676;DHT22;4375;52.486;13.424;2023-09-12T10:08:52;28.70;99.90
8676;DHT22;4375;52.486;13.424;2023-09-12T10:11:20;28.60;99.90
8676;DHT22;4375;52.486;13.424;2023-09-12T10:13:54;28.50;99.90
8676;DHT22;4375;52.486;13.424;2023-09-12T10:16:25;28.30;99.90
8676;DHT22;4375;52.486;13.424;2023-09-12T10:19:16;28.00;99.90
8676;DHT22;4375;52.486;13.424;2023-09-12T10:24:21;28.00;99.90
8676;DHT22;4375;52.486;13.424;2023-09-12T10:26:50;28.00;99.90
8676;DHT22;4375;52.486;13.424;2023-09-12T10:29:15;27.80;99.90
8676;DHT22;4375;52.486;13.424;2023-09-12T10:31:41;27.70;99.90
8676;DHT22;4375;52.486;13.424;2023-09-12T10:34:08;27.40;99.90
8676;DHT22;4375;52.486;13.424;2023-09-12T10:36:40;27.30;99.90
8676;DHT22;4375;52.486;13.424;2023-09-12T10:39:07;27.30;99.90
8676;DHT22;4375;52.486;13.424;2023-09-12T10:41:37;27.10;99.90
8676;DHT22;4375;52.486;13.424;2023-09-12T10:44:10;27.10;99.90
8676;DHT22;4375;52.486;13.424;2023-09-12T10:46:40;27.30;99.90
8676;DHT22;4375;52.486;13.424;2023-09-12T10:49:10;27.40;99.90
8676;DHT22;4375;52.486;13.424;2023-09-12T10:51:43;27.40;99.90
8676;DHT22;4375;52.486;13.424;2023-09-12T10:54:14;27.50;99.90
8676;DHT22;4375;52.486;13.424;2023-09-12T10:56:40;27.50;99.90
8676;DHT22;4375;52.486;13.424;2023-09-12T11:01:36;27.60;99.90
8676;DHT22;4375;52.486;13.424;2023-09-12T11:06:53;27.70;99.90
8676;DHT22;4375;52.486;13.424;2023-09-12T11:09:23;27.70;99.90
8676;DHT22;4375;52.486;13.424;2023-09-12T11:12:04;27.60;99.90
8676;DHT22;4375;52.486;13.424;2023-09-12T11:14:32;27.40;99.90
8676;DHT22;4375;52.486;13.424;2023-09-12T11:19:52;27.40;99.90
8676;DHT22;4375;52.486;13.424;2023-09-12T11:24:48;27.40;99.90
8676;DHT22;4375;52.486;13.424;2023-09-12T11:27:14;27.50;99.90
8676;DHT22;4375;52.486;13.424;2023-09-12T11:29:40;27.60;99.90
8676;DHT22;4375;52.486;13.424;2023-09-12T11:32:07;27.70;99.90
8676;DHT22;4375;52.486;13.424;2023-09-12T11:34:42;27.80;99.90
8676;DHT22;4375;52.486;13.424;2023-09-12T11:37:08;27.90;99.90
8676;DHT22;4375;52.486;13.424;2023-09-12T11:39:35;27.90;99.90
8676;DHT22;4375;52.486;13.424;2023-09-12T11:42:03;27.90;99.90
8676;DHT22;4375;52.486;13.424;2023-09-12T11:44:30;28.00;99.90
8676;DHT22;4375;52.486;13.424;2023-09-12T11:46:59;27.90;99.90
8676;DHT22;4375;52.486;13.424;2023-09-12T11:49:39;28.00;99.90
8676;DHT22;4375;52.486;13.424;2023-09-12T11:54:38;27.90;99.90
8676;DHT22;4375;52.486;13.424;2023-09-12T11:57:04;28.00;99.90
8676;DHT22;4375;52.486;13.424;2023-09-12T11:59:30;27.90;99.90
8676;DHT22;4375;52.486;13.424;2023-09-12T12:01:55;27.90;99.90
8676;DHT22;4375;52.486;13.424;2023-09-12T12:04:24;27.80;99.90
8676;DHT22;4375;52.486;13.424;2023-09-12T12:06:51;27.70;99.90
8676;DHT22;4375;52.486;13.424;2023-09-12T12:09:18;27.70;99.90
8676;DHT22;4375;52.486;13.424;2023-09-12T12:11:45;27.70;99.90
8676;DHT22;4375;52.486;13.424;2023-09-12T12:14:13;27.70;99.90
8676;DHT22;4375;52.486;13.424;2023-09-12T12:16:41;27.60;99.90
8676;DHT22;4375;52.486;13.424;2023-09-12T12:19:07;27.50;99.90
8676;DHT22;4375;52.486;13.424;2023-09-12T12:21:32;27.50;99.90
8676;DHT22;4375;52.486;13.424;2023-09-12T12:24:02;27.60;99.90
8676;DHT22;4375;52.486;13.424;2023-09-12T12:26:32;27.70;99.90
8676;DHT22;4375;52.486;13.424;2023-09-12T12:29:00;27.70;99.90
8676;DHT22;4375;52.486;13.424;2023-09-12T12:31:26;27.90;99.90
8676;DHT22;4375;52.486;13.424;2023-09-12T12:33:56;27.90;99.90
8676;DHT22;4375;52.486;13.424;2023-09-12T12:36:22;27.90;99.90
8676;DHT22;4375;52.486;13.424;2023-09-12T12:38:49;27.80;99.90
8676;DHT22;4375;52.486;13.424;2023-09-12T12:41:16;27.70;99.90
8676;DHT22;4375;52.486;13.424;2023-09-12T12:43:49;27.70;99.90
8676;DHT22;4375;52.486;13.424;2023-09-12T12:46:16;27.70;99.90
8676;DHT22;4375;52.486;13.424;2023-09-12T12:48:45;27.70;99.90
8676;DHT22;4375;52.486;13.424;2023-09-12T12:53:46;27.60;99.90
8676;DHT22;4375;52.486;13.424;2023-09-12T12:56:18;27.70;99.90
8676;DHT22;4375;52.486;13.424;2023-09-12T12:58:57;27.70;99.90
8676;DHT22;4375;52.486;13.424;2023-09-12T13:01:24;27.80;99.90
8676;DHT22;4375;52.486;13.424;2023-09-12T13:03:50;27.80;99.90
8676;DHT22;4375;52.486;13.424;2023-09-12T13:06:17;27.80;99.90
8676;DHT22;4375;52.486;13.424;2023-09-12T13:08:44;27.80;99.90
8676;DHT22;4375;52.486;13.424;2023-09-12T13:11:10;27.80;99.90
8676;DHT22;4375;52.486;13.424;2023-09-12T13:13:37;27.90;99.90
8676;DHT22;4375;52.486;13.424;2023-09-12T13:16:07;27.90;99.90
8676;DHT22;4375;52.486;13.424;2023-09-12T13:18:35;27.90;99.90
8676;DHT22;4375;52.486;13.424;2023-09-12T13:21:01;27.90;99.90
8676;DHT22;4375;52.486;13.424;2023-09-12T13:23:28;27.90;99.90
8676;DHT22;4375;52.486;13.424;2023-09-12T13:25:54;27.80;99.90
8676;DHT22;4375;52.486;13.424;2023-09-12T13:28:20;27.80;99.90
8676;DHT22;4375;52.486;13.424;2023-09-12T13:30:46;27.80;99.90
8676;DHT22;4375;52.486;13.424;2023-09-12T13:33:12;27.70;99.90
8676;DHT22;4375;52.486;13.424;2023-09-12T13:35:40;27.70;99.90
8676;DHT22;4375;52.486;13.424;2023-09-12T13:38:06;27.70;99.90
8676;DHT22;4375;52.486;13.424;2023-09-12T13:40:39;27.70;99.90
8676;DHT22;4375;52.486;13.424;2023-09-12T13:43:06;27.70;99.90
8676;DHT22;4375;52.486;13.424;2023-09-12T13:45:32;27.80;99.90
8676;DHT22;4375;52.486;13.424;2023-09-12T13:48:02;27.80;99.90
8676;DHT22;4375;52.486;13.424;2023-09-12T13:50:29;27.80;99.90
8676;DHT22;4375;52.486;13.424;2023-09-12T13:52:55;27.70;99.90
8676;DHT22;4375;52.486;13.424;2023-09-12T13:55:22;27.70;99.90
8676;DHT22;4375;52.486;13.424;2023-09-12T13:57:47;27.70;99.90
8676;DHT22;4375;52.486;13.424;2023-09-12T14:00:13;27.70;99.90
8676;DHT22;4375;52.486;13.424;2023-09-12T14:02:39;27.70;99.90
8676;DHT22;4375;52.486;13.424;2023-09-12T14:05:05;27.70;99.90
8676;DHT22;4375;52.486;13.424;2023-09-12T14:07:31;27.70;99.90
8676;DHT22;4375;52.486;13.424;2023-09-12T14:09:56;27.70;99.90
8676;DHT22;4375;52.486;13.424;2023-09-12T14:12:23;27.80;99.90
8676;DHT22;4375;52.486;13.424;2023-09-12T14:14:49;27.70;99.90
8676;DHT22;4375;52.486;13.424;2023-09-12T14:17:15;27.70;99.90
8676;DHT22;4375;52.486;13.424;2023-09-12T14:19:41;27.60;99.90
8676;DHT22;4375;52.486;13.424;2023-09-12T14:22:06;27.60;99.90
8676;DHT22;4375;52.486;13.424;2023-09-12T14:24:32;27.60;99.90
8676;DHT22;4375;52.486;13.424;2023-09-12T14:26:58;27.70;99.90
8676;DHT22;4375;52.486;13.424;2023-09-12T14:29:24;27.70;99.90
8676;DHT22;4375;52.486;13.424;2023-09-12T14:31:52;27.80;99.90
8676;DHT22;4375;52.486;13.424;2023-09-12T14:34:24;27.90;99.90
8676;DHT22;4375;52.486;13.424;2023-09-12T14:36:54;27.90;99.90
8676;DHT22;4375;52.486;13.424;2023-09-12T14:39:21;27.90;99.90
8676;DHT22;4375;52.486;13.424;2023-09-12T14:41:46;28.00;99.90
8676;DHT22;4375;52.486;13.424;2023-09-12T14:44:23;27.90;99.90
8676;DHT22;4375;52.486;13.424;2023-09-12T14:46:49;28.00;99.90
8676;DHT22;4375;52.486;13.424;2023-09-12T14:49:15;28.00;99.90
8676;DHT22;4375;52.486;13.424;2023-09-12T14:51:41;28.10;99.90
8676;DHT22;4375;52.486;13.424;2023-09-12T14:54:07;28.10;99.90
8676;DHT22;4375;52.486;13.424;2023-09-12T14:56:34;28.00;99.90
8676;DHT22;4375;52.486;13.424;2023-09-12T14:59:00;28.00;99.90
8676;DHT22;4375;52.486;13.424;2023-09-12T15:01:26;27.90;99.90
8676;DHT22;4375;52.486;13.424;2023-09-12T15:03:52;27.60;99.90
8676;DHT22;4375;52.486;13.424;2023-09-12T15:06:20;27.30;99.90
8676;DHT22;4375;52.486;13.424;2023-09-12T15:08:46;27.10;99.90
8676;DHT22;4375;52.486;13.424;2023-09-12T15:11:11;27.00;99.90
8676;DHT22;4375;52.486;13.424;2023-09-12T15:13:37;26.80;99.90
8676;DHT22;4375;52.486;13.424;2023-09-12T15:16:04;26.70;99.90
8676;DHT22;4375;52.486;13.424;2023-09-12T15:18:30;26.80;99.90
8676;DHT22;4375;52.486;13.424;2023-09-12T15:20:56;26.80;99.90
8676;DHT22;4375;52.486;13.424;2023-09-12T15:23:21;26.80;99.90
8676;DHT22;4375;52.486;13.424;2023-09-12T15:25:49;26.70;99.90
8676;DHT22;4375;52.486;13.424;2023-09-12T15:28:14;26.60;99.90
8676;DHT22;4375;52.486;13.424;2023-09-12T15:30:40;26.50;99.90
8676;DHT22;4375;52.486;13.424;2023-09-12T15:33:06;26.50;99.90
8676;DHT22;4375;52.486;13.424;2023-09-12T15:35:31;26.40;99.90
8676;DHT22;4375;52.486;13.424;2023-09-12T15:37:57;26.30;99.90
8676;DHT22;4375;52.486;13.424;2023-09-12T15:40:23;26.20;99.90
8676;DHT22;4375;52.486;13.424;2023-09-12T15:42:48;26.20;99.90
8676;DHT22;4375;52.486;13.424;2023-09-12T15:45:14;26.10;99.90
8676;DHT22;4375;52.486;13.424;2023-09-12T15:47:41;26.00;99.90
8676;DHT22;4375;52.486;13.424;2023-09-12T15:50:07;25.80;99.90
8676;DHT22;4375;52.486;13.424;2023-09-12T15:52:33;25.80;99.90
8676;DHT22;4375;52.486;13.424;2023-09-12T15:55:06;25.80;99.90
8676;DHT22;4375;52.486;13.424;2023-09-12T15:57:32;25.70;99.90
8676;DHT22;4375;52.486;13.424;2023-09-12T15:59:58;25.70;99.90
8676;DHT22;4375;52.486;13.424;2023-09-12T16:02:25;25.70;99.90
8676;DHT22;4375;52.486;13.424;2023-09-12T16:04:51;25.70;99.90
8676;DHT22;4375;52.486;13.424;2023-09-12T16:07:17;25.60;99.90
8676;DHT22;4375;52.486;13.424;2023-09-12T16:09:42;25.50;99.90